Time;durP1;ratioP1;P1;durP2;ratioP2;P2;SDS_P1;SDS_P2;PMS_P1;PMS_P2;Temp;Humidity;BMP_temperature;BMP_pressure;BME280_temperature;BME280_humidity;BME280_pressure;Samples;Min_cycle;Max_cycle;Signal;HPM_P1;HPM_P2
2022/05/02 00:01:47;;;;;;;;;;;;;;;;;;2210600;67;1187;-72
2022/05/02 00:04:20;;;;;;;;;;;;;;;;;;2210415;67;1259;-72
2022/05/02 00:06:56;;;;;;;;;;;;;;;;;;2210485;59;1715;-72
2022/05/02 00:09:29;;;;;;;;;;;;;;;;;;2209597;59;1894;-72
2022/05/02 00:12:02;;;;;;;;;;;;;;;;;;2210504;59;1254;-72
2022/05/02 00:14:35;;;;;;;;;;;;;;;;;;2209479;67;1110;-72
2022/05/02 00:17:08;;;;;;;;;;;;;;;;;;2210837;59;1922;-72
2022/05/02 00:19:41;;;;;;;;;;;;;;;;;;2211249;59;1334;-72
2022/05/02 00:22:17;;;;;;;;;;;;;;;;;;2210052;67;2053;-72
2022/05/02 00:24:50;;;;;;;;;;;;;;;;;;2210895;67;1131;-72
2022/05/02 00:27:24;;;;;;;;;;;;;;;;;;2210488;62;1165;-72
2022/05/02 00:29:57;;;;;;;;;;;;;;;;;;2209993;59;1695;-72
2022/05/02 00:32:30;;;;;;;;;;;;;;;;;;2209281;67;1214;-72
2022/05/02 00:35:03;;;;;;;;;;;;;;;;;;2210951;67;1107;-72
2022/05/02 00:37:39;;;;;;;;;;;;;;;;;;2210635;67;1941;-72
2022/05/02 00:40:14;;;;;;;;;;;;;;;;;;2209887;67;1304;-72
2022/05/02 00:42:48;;;;;;;;;;;;;;;;;;2209247;59;1912;-72
2022/05/02 00:45:22;;;;;;;;;;;;;;;;;;2212556;59;1283;-72
2022/05/02 00:47:56;;;;;;;;;;;;;;;;;;2209539;59;1577;-72
2022/05/02 00:50:36;;;;;;;;;;;;;;;;;;2209542;67;1178;-72
2022/05/02 00:53:13;;;;;;;;;;;;;;;;;;2211072;67;1216;-72
2022/05/02 00:55:47;;;;;;;;;;;;;;;;;;2211554;59;1994;-72
2022/05/02 00:58:20;;;;;;;;;;;;;;;;;;2210928;59;1883;-72
2022/05/02 01:00:53;;;;;;;;;;;;;;;;;;2211487;59;1080;-72
2022/05/02 01:03:26;;;;;;;;;;;;;;;;;;2211399;67;1248;-72
2022/05/02 01:08:52;;;;;;;;;;;;;;;;;;2214595;53;3619;-68
2022/05/02 01:11:25;;;;;;;;;;;;;;;;;;2217482;59;1214;-68
2022/05/02 01:13:58;;;;;;;;;;;;;;;;;;2219249;58;1195;-68
2022/05/02 01:16:31;;;;;;;;;;;;;;;;;;2219512;58;2006;-68
2022/05/02 01:19:04;;;;;;;;;;;;;;;;;;2218791;66;1202;-68
2022/05/02 01:21:41;;;;;;;;;;;;;;;;;;2217147;59;1509;-68
2022/05/02 01:24:14;;;;;;;;;;;;;;;;;;2216789;66;1153;-68
2022/05/02 01:26:47;;;;;;;;;;;;;;;;;;2217501;59;1191;-69
2022/05/02 01:29:20;;;;;;;;;;;;;;;;;;2217046;59;1754;-68
2022/05/02 01:31:55;;;;;;;;;;;;;;;;;;2217133;59;1045;-68
2022/05/02 01:34:28;;;;;;;;;;;;;;;;;;2216676;66;1151;-68
2022/05/02 01:37:04;;;;;;;;;;;;;;;;;;2216433;66;1928;-68
2022/05/02 01:39:38;;;;;;;;;;;;;;;;;;2214347;66;1194;-68
2022/05/02 01:42:12;;;;;;;;;;;;;;;;;;2217964;59;1108;-68
2022/05/02 01:44:45;;;;;;;;;;;;;;;;;;2216505;59;1284;-68
2022/05/02 01:47:18;;;;;;;;;;;;;;;;;;2216968;59;2005;-68
2022/05/02 01:49:51;;;;;;;;;;;;;;;;;;2215775;59;1902;-68
2022/05/02 01:52:27;;;;;;;;;;;;;;;;;;2214282;59;1679;-68
2022/05/02 01:55:00;;;;;;;;;;;;;;;;;;2215068;59;1476;-68
2022/05/02 01:57:33;;;;;;;;;;;;;;;;;;2215237;59;2021;-68
2022/05/02 02:00:07;;;;;;;;;;;;;;;;;;2215038;66;1202;-68
2022/05/02 02:02:40;;;;;;;;;;;;;;;;;;2216554;59;1093;-68
2022/05/02 02:08:05;;;;;;;;;;;;;;;;;;2216827;59;1904;-68
2022/05/02 02:10:38;;;;;;;;;;;;;;;;;;2213825;66;1207;-68
2022/05/02 02:13:12;;;;;;;;;;;;;;;;;;2217477;59;1508;-68
2022/05/02 02:15:45;;;;;;;;;;;;;;;;;;2217365;58;1085;-68
2022/05/02 02:18:19;;;;;;;;;;;;;;;;;;2217094;66;1937;-68
2022/05/02 02:20:54;;;;;;;;;;;;;;;;;;2217506;66;1540;-68
2022/05/02 02:23:30;;;;;;;;;;;;;;;;;;2216807;66;1189;-68
2022/05/02 02:26:03;;;;;;;;;;;;;;;;;;2217698;59;1104;-71
2022/05/02 02:28:36;;;;;;;;;;;;;;;;;;2216088;59;1561;-68
2022/05/02 02:31:10;;;;;;;;;;;;;;;;;;2217352;59;1054;-68
2022/05/02 02:33:43;;;;;;;;;;;;;;;;;;2216491;58;1219;-68
2022/05/02 02:36:16;;;;;;;;;;;;;;;;;;2216875;66;1925;-68
2022/05/02 02:38:52;;;;;;;;;;;;;;;;;;2215097;59;1213;-68
2022/05/02 02:41:25;;;;;;;;;;;;;;;;;;2216754;59;1200;-67
2022/05/02 02:43:58;;;;;;;;;;;;;;;;;;2212944;59;1171;-68
2022/05/02 02:46:31;;;;;;;;;;;;;;;;;;2218170;59;1271;-68
2022/05/02 02:49:05;;;;;;;;;;;;;;;;;;2216403;59;1661;-68
2022/05/02 02:51:38;;;;;;;;;;;;;;;;;;2217621;59;1100;-68
2022/05/02 02:54:14;;;;;;;;;;;;;;;;;;2216526;59;1705;-68
2022/05/02 02:56:47;;;;;;;;;;;;;;;;;;2213880;59;1944;-67
2022/05/02 02:59:21;;;;;;;;;;;;;;;;;;2216618;58;2023;-68
2022/05/02 03:01:54;;;;;;;;;;;;;;;;;;2217378;58;1048;-68
2022/05/02 03:07:16;;;;;;;;;;;;;;;;;;2217133;66;1120;-68
2022/05/02 03:09:52;;;;;;;;;;;;;;;;;;2216483;59;1771;-68
2022/05/02 03:12:25;;;;;;;;;;;;;;;;;;2217841;59;1334;-68
2022/05/02 03:14:59;;;;;;;;;;;;;;;;;;2215456;59;1570;-68
2022/05/02 03:17:32;;;;;;;;;;;;;;;;;;2215061;59;1923;-68
2022/05/02 03:20:05;;;;;;;;;;;;;;;;;;2215395;66;1496;-68
2022/05/02 03:22:38;;;;;;;;;;;;;;;;;;2216822;66;1214;-67
2022/05/02 03:25:14;;;;;;;;;;;;;;;;;;2215173;59;1691;-68
2022/05/02 03:27:47;;;;;;;;;;;;;;;;;;2213411;66;1341;-68
2022/05/02 03:30:21;;;;;;;;;;;;;;;;;;2215665;59;2020;-68
2022/05/02 03:32:55;;;;;;;;;;;;;;;;;;2216504;59;1061;-68
2022/05/02 03:35:28;;;;;;;;;;;;;;;;;;2217769;66;1117;-68
2022/05/02 03:38:01;;;;;;;;;;;;;;;;;;2215429;66;1932;-67
2022/05/02 03:40:37;;;;;;;;;;;;;;;;;;2216160;59;1137;-68
2022/05/02 03:43:10;;;;;;;;;;;;;;;;;;2216315;66;1223;-68
2022/05/02 03:45:43;;;;;;;;;;;;;;;;;;2218453;59;1636;-68
2022/05/02 03:48:16;;;;;;;;;;;;;;;;;;2216759;59;1668;-67
2022/05/02 03:50:49;;;;;;;;;;;;;;;;;;2215616;66;1149;-68
2022/05/02 03:53:23;;;;;;;;;;;;;;;;;;2217003;66;1156;-68
2022/05/02 03:55:59;;;;;;;;;;;;;;;;;;2217444;59;1579;-68
2022/05/02 03:58:32;;;;;;;;;;;;;;;;;;2216786;58;1980;-68
2022/05/02 04:01:05;;;;;;;;;;;;;;;;;;2216214;59;1243;-68
2022/05/02 04:03:38;;;;;;;;;;;;;;;;;;2217408;59;1207;-68
2022/05/02 04:06:12;;;;;;;;;;;;;;;;;;2216700;66;1305;-68
2022/05/02 04:08:46;;;;;;;;;;;;;;;;;;2216490;59;1960;-68
2022/05/02 04:11:21;;;;;;;;;;;;;;;;;;2217834;59;1314;-68
2022/05/02 04:13:55;;;;;;;;;;;;;;;;;;2216930;66;1212;-70
2022/05/02 04:16:28;;;;;;;;;;;;;;;;;;2217375;59;1148;-71
2022/05/02 04:19:01;;;;;;;;;;;;;;;;;;2217473;59;2376;-68
2022/05/02 04:21:34;;;;;;;;;;;;;;;;;;2216267;59;1738;-68
2022/05/02 04:24:08;;;;;;;;;;;;;;;;;;2217209;66;1268;-68
2022/05/02 04:26:43;;;;;;;;;;;;;;;;;;2217533;66;1148;-68
2022/05/02 04:29:17;;;;;;;;;;;;;;;;;;2217550;59;1909;-67
2022/05/02 04:31:50;;;;;;;;;;;;;;;;;;2217083;59;1193;-67
2022/05/02 04:34:23;;;;;;;;;;;;;;;;;;2215492;66;1024;-68
2022/05/02 04:36:56;;;;;;;;;;;;;;;;;;2216641;59;1927;-68
2022/05/02 04:39:29;;;;;;;;;;;;;;;;;;2215029;66;1228;-68
2022/05/02 04:42:06;;;;;;;;;;;;;;;;;;2215280;59;1074;-69
2022/05/02 04:44:39;;;;;;;;;;;;;;;;;;2216571;59;1262;-68
2022/05/02 04:47:12;;;;;;;;;;;;;;;;;;2216712;59;1643;-68
2022/05/02 04:49:45;;;;;;;;;;;;;;;;;;2211200;59;1931;-69
2022/05/02 04:52:18;;;;;;;;;;;;;;;;;;2216644;66;1203;-68
2022/05/02 04:54:51;;;;;;;;;;;;;;;;;;2210160;59;1771;-68
2022/05/02 04:57:27;;;;;;;;;;;;;;;;;;2216149;58;2430;-68
2022/05/02 05:00:00;;;;;;;;;;;;;;;;;;2212971;59;2419;-68
2022/05/02 05:02:33;;;;;;;;;;;;;;;;;;2214195;66;1255;-68
2022/05/02 05:05:07;;;;;;;;;;;;;;;;;;2217223;59;1237;-68
2022/05/02 05:07:40;;;;;;;;;;;;;;;;;;2217032;66;1094;-68
2022/05/02 05:10:13;;;;;;;;;;;;;;;;;;2213823;59;1949;-68
2022/05/02 05:12:56;;;;;;;;;;;;;;;;;;2217202;59;1441;-68
2022/05/02 05:18:32;;;;;;;;;;;;;;;;;;2214036;59;1948;-68
2022/05/02 05:21:07;;;;;;;;;;;;;;;;;;2216821;59;1458;-68
2022/05/02 05:23:54;;;;;;;;;;;;;;;;;;2215559;59;1805;-68
2022/05/02 05:26:33;;;;;;;;;;;;;;;;;;2216597;66;1230;-68
2022/05/02 05:29:15;;;;;;;;;;;;;;;;;;2216415;58;1820;-67
2022/05/02 05:31:54;;;;;;;;;;;;;;;;;;2217106;66;1016;-68
2022/05/02 05:34:33;;;;;;;;;;;;;;;;;;2214319;66;1168;-68
2022/05/02 05:37:30;;;;;;;;;;;;;;;;;;2217452;66;1233;-68
2022/05/02 05:40:07;;;;;;;;;;;;;;;;;;2213326;66;1350;-68
2022/05/02 05:42:45;;;;;;;;;;;;;;;;;;2215138;59;1674;-68
2022/05/02 05:45:22;;;;;;;;;;;;;;;;;;2215101;59;1260;-68
2022/05/02 05:48:00;;;;;;;;;;;;;;;;;;2211523;59;1871;-68
2022/05/02 05:50:34;;;;;;;;;;;;;;;;;;2214657;66;1035;-68
2022/05/02 05:53:09;;;;;;;;;;;;;;;;;;2216757;66;1113;-68
2022/05/02 05:55:51;;;;;;;;;;;;;;;;;;2217496;59;1424;-68
2022/05/02 05:58:30;;;;;;;;;;;;;;;;;;2215145;58;2238;-68
2022/05/02 06:01:11;;;;;;;;;;;;;;;;;;2214115;59;2222;-68
2022/05/02 06:03:53;;;;;;;;;;;;;;;;;;2214686;66;1161;-68
2022/05/02 06:06:26;;;;;;;;;;;;;;;;;;2217551;59;1136;-68
2022/05/02 06:09:00;;;;;;;;;;;;;;;;;;2213264;59;1723;-69
2022/05/02 06:11:35;;;;;;;;;;;;;;;;;;2214556;59;1278;-68
2022/05/02 06:14:10;;;;;;;;;;;;;;;;;;2215085;59;1216;-68
2022/05/02 06:19:37;;;;;;;;;;;;;;;;;;2212872;59;2146;-68
2022/05/02 06:22:10;;;;;;;;;;;;;;;;;;2215859;59;1407;-69
2022/05/02 06:24:47;;;;;;;;;;;;;;;;;;2214099;66;1125;-69
2022/05/02 06:27:20;;;;;;;;;;;;;;;;;;2216731;66;1116;-68
2022/05/02 06:29:53;;;;;;;;;;;;;;;;;;2215398;59;1723;-69
2022/05/02 06:32:31;;;;;;;;;;;;;;;;;;2216178;59;1178;-69
2022/05/02 06:35:04;;;;;;;;;;;;;;;;;;2216182;61;1136;-68
2022/05/02 06:37:42;;;;;;;;;;;;;;;;;;2215126;59;2002;-69
2022/05/02 06:40:21;;;;;;;;;;;;;;;;;;2214257;59;1306;-69
2022/05/02 06:43:00;;;;;;;;;;;;;;;;;;2211573;59;1679;-68
2022/05/02 06:45:39;;;;;;;;;;;;;;;;;;2212690;59;1641;-68
2022/05/02 06:48:31;;;;;;;;;;;;;;;;;;2213342;59;1617;-68
2022/05/02 06:51:08;;;;;;;;;;;;;;;;;;2213822;59;1787;-68
2022/05/02 06:54:00;;;;;;;;;;;;;;;;;;2214074;59;1562;-68
2022/05/02 06:56:41;;;;;;;;;;;;;;;;;;2212109;59;1963;-68
2022/05/02 06:59:26;;;;;;;;;;;;;;;;;;2213559;58;2071;-68
2022/05/02 07:02:00;;;;;;;;;;;;;;;;;;2211124;59;1650;-69
2022/05/02 07:04:43;;;;;;;;;;;;;;;;;;2216128;66;1221;-68
2022/05/02 07:07:24;;;;;;;;;;;;;;;;;;2216480;59;1159;-69
2022/05/02 07:10:01;;;;;;;;;;;;;;;;;;2218327;58;3690;-72
2022/05/02 07:12:37;;;;;;;;;;;;;;;;;;2220658;58;1217;-72
2022/05/02 07:15:13;;;;;;;;;;;;;;;;;;2222803;66;1336;-72
2022/05/02 07:18:00;;;;;;;;;;;;;;;;;;2222890;58;1638;-72
2022/05/02 07:20:37;;;;;;;;;;;;;;;;;;2224424;58;1555;-72
2022/05/02 07:23:19;;;;;;;;;;;;;;;;;;2222701;66;1104;-72
2022/05/02 07:25:53;;;;;;;;;;;;;;;;;;2221467;58;1572;-72
2022/05/02 07:28:32;;;;;;;;;;;;;;;;;;2223138;58;1132;-72
2022/05/02 07:31:07;;;;;;;;;;;;;;;;;;2221682;58;2009;-73
2022/05/02 07:33:42;;;;;;;;;;;;;;;;;;2222265;58;1276;-72
2022/05/02 07:36:17;;;;;;;;;;;;;;;;;;2223082;66;1170;-72
2022/05/02 07:38:55;;;;;;;;;;;;;;;;;;2221955;59;1931;-73
2022/05/02 07:41:28;;;;;;;;;;;;;;;;;;2224382;66;1226;-72
2022/05/02 07:44:03;;;;;;;;;;;;;;;;;;2222103;58;1632;-72
2022/05/02 07:46:38;;;;;;;;;;;;;;;;;;2221899;58;1442;-73
2022/05/02 07:49:12;;;;;;;;;;;;;;;;;;2223275;58;1765;-72
2022/05/02 07:51:47;;;;;;;;;;;;;;;;;;2224585;58;1751;-72
2022/05/02 07:54:24;;;;;;;;;;;;;;;;;;2221652;58;1634;-73
2022/05/02 07:56:59;;;;;;;;;;;;;;;;;;2222753;59;1410;-72
2022/05/02 07:59:33;;;;;;;;;;;;;;;;;;2224129;58;2171;-72
2022/05/02 08:02:07;;;;;;;;;;;;;;;;;;2223649;66;1192;-73
2022/05/02 08:04:41;;;;;;;;;;;;;;;;;;2224208;66;1241;-73
2022/05/02 08:07:16;;;;;;;;;;;;;;;;;;2223692;66;1123;-73
2022/05/02 08:10:04;;;;;;;;;;;;;;;;;;2222732;58;1860;-72
2022/05/02 08:12:41;;;;;;;;;;;;;;;;;;2221847;58;1285;-73
2022/05/02 08:15:17;;;;;;;;;;;;;;;;;;2222815;66;1170;-73
2022/05/02 08:18:08;;;;;;;;;;;;;;;;;;2223057;66;1082;-72
2022/05/02 08:20:45;;;;;;;;;;;;;;;;;;2223600;58;1653;-72
2022/05/02 08:29:14;;;;;;;;;;;;;;;;;;2216820;58;1579;-73
2022/05/02 08:31:53;;;;;;;;;;;;;;;;;;2222196;66;1008;-73
2022/05/02 08:34:33;;;;;;;;;;;;;;;;;;2223022;58;1148;-73
2022/05/02 08:37:12;;;;;;;;;;;;;;;;;;2223159;66;1180;-73
2022/05/02 08:39:55;;;;;;;;;;;;;;;;;;2221549;58;2023;-73
2022/05/02 08:42:52;;;;;;;;;;;;;;;;;;2223637;66;1118;-73
2022/05/02 08:45:40;;;;;;;;;;;;;;;;;;2220858;58;1720;-73
2022/05/02 08:48:32;;;;;;;;;;;;;;;;;;2219189;58;1485;-73
2022/05/02 08:51:25;;;;;;;;;;;;;;;;;;2223594;58;2123;-72
2022/05/02 08:54:13;;;;;;;;;;;;;;;;;;2223326;58;1417;-73
2022/05/02 08:56:52;;;;;;;;;;;;;;;;;;2223734;58;1317;-73
2022/05/02 08:59:58;;;;;;;;;;;;;;;;;;2222573;58;2081;-73
2022/05/02 09:02:57;;;;;;;;;;;;;;;;;;2223874;66;1185;-72
2022/05/02 09:05:51;;;;;;;;;;;;;;;;;;2222575;66;1154;-73
2022/05/02 09:08:42;;;;;;;;;;;;;;;;;;2224186;66;1246;-73
2022/05/02 09:11:34;;;;;;;;;;;;;;;;;;2223586;58;2139;-73
2022/05/02 09:14:30;;;;;;;;;;;;;;;;;;2223346;58;1220;-72
2022/05/02 09:17:19;;;;;;;;;;;;;;;;;;2223372;66;1234;-73
2022/05/02 09:20:06;;;;;;;;;;;;;;;;;;2222412;58;1926;-73
2022/05/02 09:22:54;;;;;;;;;;;;;;;;;;2223120;66;1191;-72
2022/05/02 09:25:38;;;;;;;;;;;;;;;;;;2222659;66;1170;-73
2022/05/02 09:28:20;;;;;;;;;;;;;;;;;;2223968;58;1554;-73
2022/05/02 09:31:14;;;;;;;;;;;;;;;;;;2220553;58;1781;-73
2022/05/02 09:33:52;;;;;;;;;;;;;;;;;;2221649;58;1203;-73
2022/05/02 09:36:29;;;;;;;;;;;;;;;;;;2221760;58;1588;-73
2022/05/02 09:39:10;;;;;;;;;;;;;;;;;;2221984;66;1980;-73
2022/05/02 09:42:05;;;;;;;;;;;;;;;;;;2222081;58;1840;-72
2022/05/02 09:50:50;;;;;;;;;;;;;;;;;;2218056;58;1882;-73
2022/05/02 09:53:31;;;;;;;;;;;;;;;;;;2221126;58;1269;-73
2022/05/02 09:59:05;;;;;;;;;;;;;;;;;;2223529;58;2019;-73
2022/05/02 10:01:43;;;;;;;;;;;;;;;;;;2223765;66;1233;-73
2022/05/02 10:04:31;;;;;;;;;;;;;;;;;;2223563;66;1099;-73
2022/05/02 10:07:07;;;;;;;;;;;;;;;;;;2224235;66;1149;-73
2022/05/02 10:09:55;;;;;;;;;;;;;;;;;;2221329;58;1903;-72
2022/05/02 10:12:33;;;;;;;;;;;;;;;;;;2221807;58;1651;-73
2022/05/02 10:15:21;;;;;;;;;;;;;;;;;;2220420;58;1983;-73
2022/05/02 10:18:14;;;;;;;;;;;;;;;;;;2223648;66;1196;-73
2022/05/02 10:20:56;;;;;;;;;;;;;;;;;;2223448;58;1936;-73
2022/05/02 10:23:46;;;;;;;;;;;;;;;;;;2223400;66;1142;-73
2022/05/02 10:26:34;;;;;;;;;;;;;;;;;;2221192;59;1371;-72
2022/05/02 10:29:27;;;;;;;;;;;;;;;;;;2219029;58;1950;-73
2022/05/02 10:32:08;;;;;;;;;;;;;;;;;;2222920;66;1025;-73
2022/05/02 10:34:43;;;;;;;;;;;;;;;;;;2221353;58;1238;-73
2022/05/02 10:37:18;;;;;;;;;;;;;;;;;;2220240;58;1929;-73
2022/05/02 10:39:53;;;;;;;;;;;;;;;;;;2222709;58;1972;-74
2022/05/02 10:42:27;;;;;;;;;;;;;;;;;;2222450;58;1768;-73
2022/05/02 10:45:06;;;;;;;;;;;;;;;;;;2220900;58;1875;-74
2022/05/02 10:47:46;;;;;;;;;;;;;;;;;;2221203;58;2197;-73
2022/05/02 10:50:21;;;;;;;;;;;;;;;;;;2221404;58;2548;-73
2022/05/02 10:52:56;;;;;;;;;;;;;;;;;;2223477;58;1023;-73
2022/05/02 10:55:33;;;;;;;;;;;;;;;;;;2223039;58;1663;-73
2022/05/02 10:58:07;;;;;;;;;;;;;;;;;;2223562;58;2000;-73
2022/05/02 11:00:49;;;;;;;;;;;;;;;;;;2224596;62;1937;-73
2022/05/02 11:03:42;;;;;;;;;;;;;;;;;;2224201;62;1156;-73
2022/05/02 11:06:24;;;;;;;;;;;;;;;;;;2223283;66;1092;-73
2022/05/02 11:09:02;;;;;;;;;;;;;;;;;;2221034;58;1605;-73
2022/05/02 11:11:41;;;;;;;;;;;;;;;;;;2221644;58;1285;-73
2022/05/02 11:14:21;;;;;;;;;;;;;;;;;;2221784;66;1227;-73
2022/05/02 11:16:58;;;;;;;;;;;;;;;;;;2219953;58;1158;-73
2022/05/02 11:22:26;;;;;;;;;;;;;;;;;;2216233;66;1230;-73
2022/05/02 11:25:06;;;;;;;;;;;;;;;;;;2221318;66;1116;-73
2022/05/02 11:27:46;;;;;;;;;;;;;;;;;;2221277;59;2420;-73
2022/05/02 11:30:22;;;;;;;;;;;;;;;;;;2220018;58;2558;-73
2022/05/02 11:33:02;;;;;;;;;;;;;;;;;;2222245;66;1088;-73
2022/05/02 11:35:39;;;;;;;;;;;;;;;;;;2222197;59;1221;-73
2022/05/02 11:38:20;;;;;;;;;;;;;;;;;;2223247;59;1189;-73
2022/05/02 11:40:54;;;;;;;;;;;;;;;;;;2220738;66;1939;-73
2022/05/02 11:43:32;;;;;;;;;;;;;;;;;;2219656;58;1607;-73
2022/05/02 11:46:09;;;;;;;;;;;;;;;;;;2221374;58;1263;-73
2022/05/02 11:48:57;;;;;;;;;;;;;;;;;;2220686;58;1931;-73
2022/05/02 11:51:40;;;;;;;;;;;;;;;;;;2218982;58;1224;-73
2022/05/02 11:54:35;;;;;;;;;;;;;;;;;;2223308;58;1565;-73
2022/05/02 11:57:22;;;;;;;;;;;;;;;;;;2222466;58;1316;-73
2022/05/02 12:00:03;;;;;;;;;;;;;;;;;;2221544;58;1921;-73
2022/05/02 12:02:51;;;;;;;;;;;;;;;;;;2221260;66;1077;-73
2022/05/02 12:05:27;;;;;;;;;;;;;;;;;;2218484;66;1191;-73
2022/05/02 12:08:04;;;;;;;;;;;;;;;;;;2221398;58;2318;-73
2022/05/02 12:10:38;;;;;;;;;;;;;;;;;;2220155;58;1737;-73
2022/05/02 12:13:13;;;;;;;;;;;;;;;;;;2222546;58;1353;-73
2022/05/02 12:16:00;;;;;;;;;;;;;;;;;;2224097;66;1092;-73
2022/05/02 12:18:43;;;;;;;;;;;;;;;;;;2219386;64;1801;-73
2022/05/02 12:21:24;;;;;;;;;;;;;;;;;;2221118;58;1986;-73
2022/05/02 12:24:01;;;;;;;;;;;;;;;;;;2219703;58;1741;-73
2022/05/02 12:26:36;;;;;;;;;;;;;;;;;;2221569;66;2028;-73
2022/05/02 12:29:16;;;;;;;;;;;;;;;;;;2221615;58;2157;-73
2022/05/02 12:31:55;;;;;;;;;;;;;;;;;;2217651;58;2531;-73
2022/05/02 12:34:38;;;;;;;;;;;;;;;;;;2222387;58;1142;-73
2022/05/02 12:37:13;;;;;;;;;;;;;;;;;;2221758;58;1804;-73
2022/05/02 12:39:52;;;;;;;;;;;;;;;;;;2221979;66;1922;-73
2022/05/02 12:42:27;;;;;;;;;;;;;;;;;;2221483;58;1695;-73
2022/05/02 12:45:06;;;;;;;;;;;;;;;;;;2222033;58;1327;-73
2022/05/02 12:47:43;;;;;;;;;;;;;;;;;;2221283;58;2174;-73
2022/05/02 12:50:17;;;;;;;;;;;;;;;;;;2216896;58;1747;-73
2022/05/02 12:52:52;;;;;;;;;;;;;;;;;;2221385;58;1185;-72
2022/05/02 12:55:32;;;;;;;;;;;;;;;;;;2223130;58;1461;-73
2022/05/02 13:01:03;;;;;;;;;;;;;;;;;;2209727;59;2544;-72
2022/05/02 13:03:40;;;;;;;;;;;;;;;;;;2221079;58;1142;-73
2022/05/02 13:06:13;;;;;;;;;;;;;;;;;;2222451;66;1254;-73
2022/05/02 13:08:46;;;;;;;;;;;;;;;;;;2219393;66;1180;-71
2022/05/02 13:11:25;;;;;;;;;;;;;;;;;;2218427;53;2016;-71
2022/05/02 13:13:59;;;;;;;;;;;;;;;;;;2219270;58;1131;-71
2022/05/02 13:16:33;;;;;;;;;;;;;;;;;;2223224;66;1273;-72
2022/05/02 13:19:07;;;;;;;;;;;;;;;;;;2219686;58;2784;-72
2022/05/02 13:21:40;;;;;;;;;;;;;;;;;;2221925;58;1926;-71
2022/05/02 13:24:17;;;;;;;;;;;;;;;;;;2221722;58;1156;-72
2022/05/02 13:27:02;;;;;;;;;;;;;;;;;;2221178;59;1242;-74
2022/05/02 13:29:42;;;;;;;;;;;;;;;;;;2219679;58;2549;-73
2022/05/02 13:49:15;;;;;;;;;;;;;;;;;;2355693;58;2177;-72
2022/05/02 13:51:55;;;;;;;;;;;;;;;;;;2220231;58;1654;-73
2022/05/02 13:54:29;;;;;;;;;;;;;;;;;;2221413;66;1548;-72
2022/05/02 13:57:09;;;;;;;;;;;;;;;;;;2221610;58;1321;-73
2022/05/02 13:59:49;;;;;;;;;;;;;;;;;;2220037;58;2024;-71
2022/05/02 14:02:39;;;;;;;;;;;;;;;;;;2210772;53;3572;-69
2022/05/02 14:05:24;;;;;;;;;;;;;;;;;;2214453;58;1692;-71
2022/05/02 14:08:01;;;;;;;;;;;;;;;;;;2218383;58;1639;-71
2022/05/02 14:10:52;;;;;;;;;;;;;;;;;;2217391;58;1871;-71
2022/05/02 14:13:26;;;;;;;;;;;;;;;;;;2213186;59;1739;-71
2022/05/02 14:16:06;;;;;;;;;;;;;;;;;;2215885;59;1170;-71
2022/05/02 14:18:53;;;;;;;;;;;;;;;;;;2211165;59;1874;-71
2022/05/02 14:21:30;;;;;;;;;;;;;;;;;;2210018;59;2537;-71
2022/05/02 14:24:04;;;;;;;;;;;;;;;;;;2211725;63;24673;-71
2022/05/02 14:26:37;;;;;;;;;;;;;;;;;;2195773;59;308755;-71
2022/05/02 14:29:11;;;;;;;;;;;;;;;;;;2209322;59;1680;-71
2022/05/02 14:31:44;;;;;;;;;;;;;;;;;;2208800;59;1845;-71
2022/05/02 14:34:17;;;;;;;;;;;;;;;;;;2208137;67;1165;-71
2022/05/02 14:36:53;;;;;;;;;;;;;;;;;;2209132;59;1744;-71
2022/05/02 14:39:26;;;;;;;;;;;;;;;;;;2208155;59;1324;-71
2022/05/02 14:42:01;;;;;;;;;;;;;;;;;;2208901;59;1933;-71
2022/05/02 14:44:34;;;;;;;;;;;;;;;;;;2209351;59;1226;-71
2022/05/02 14:47:08;;;;;;;;;;;;;;;;;;2208178;59;1601;-71
2022/05/02 14:49:41;;;;;;;;;;;;;;;;;;2207777;67;1195;-71
2022/05/02 14:52:18;;;;;;;;;;;;;;;;;;2205994;67;2186;-71
2022/05/02 14:54:53;;;;;;;;;;;;;;;;;;2209080;59;1674;-71
2022/05/02 14:57:28;;;;;;;;;;;;;;;;;;2209696;59;2033;-71
2022/05/02 15:00:04;;;;;;;;;;;;;;;;;;2209099;59;1138;-71
2022/05/02 15:02:38;;;;;;;;;;;;;;;;;;2207800;59;2414;-71
2022/05/02 15:05:14;;;;;;;;;;;;;;;;;;2208378;59;2549;-71
2022/05/02 15:07:57;;;;;;;;;;;;;;;;;;2209208;59;1231;-71
2022/05/02 15:10:41;;;;;;;;;;;;;;;;;;2209218;67;1075;-71
2022/05/02 15:13:32;;;;;;;;;;;;;;;;;;2208873;59;1354;-71
2022/05/02 15:16:09;;;;;;;;;;;;;;;;;;2208572;59;1799;-71
2022/05/02 15:21:56;;;;;;;;;;;;;;;;;;2206427;59;1996;-70
2022/05/02 15:24:56;;;;;;;;;;;;;;;;;;2207853;59;1573;-71
2022/05/02 15:36:39;;;;;;;;;;;;;;;;;;2208288;59;1156;-71
2022/05/02 15:38:57;;;;;;;;;;;;;;;;;;2209121;60;1683;-71
2022/05/02 15:41:49;;;;;;;;;;;;;;;;;;2209279;59;1935;-71
2022/05/02 15:44:27;;;;;;;;;;;;;;;;;;2209274;59;1316;-71
2022/05/02 15:47:03;;;;;;;;;;;;;;;;;;2209467;59;1200;-71
2022/05/02 15:49:37;;;;;;;;;;;;;;;;;;2208855;59;1250;-71
2022/05/02 15:52:11;;;;;;;;;;;;;;;;;;2209743;59;1557;-70
2022/05/02 15:54:47;;;;;;;;;;;;;;;;;;2209932;59;1834;-71
2022/05/02 15:57:33;;;;;;;;;;;;;;;;;;2206166;59;1424;-71
2022/05/02 16:00:17;;;;;;;;;;;;;;;;;;2209419;59;1243;-71
2022/05/02 16:03:06;;;;;;;;;;;;;;;;;;2208378;59;2755;-72
2022/05/02 16:05:42;;;;;;;;;;;;;;;;;;2209185;59;2262;-71
2022/05/02 16:11:05;;;;;;;;;;;;;;;;;;2210755;59;1391;-71
2022/05/02 16:13:39;;;;;;;;;;;;;;;;;;2210703;67;1121;-71
2022/05/02 16:16:18;;;;;;;;;;;;;;;;;;2209255;59;1833;-71
2022/05/02 16:18:55;;;;;;;;;;;;;;;;;;2211368;67;1307;-71
2022/05/02 16:21:30;;;;;;;;;;;;;;;;;;2210625;59;1985;-71
2022/05/02 16:24:04;;;;;;;;;;;;;;;;;;2209764;67;1263;-71
2022/05/02 16:26:37;;;;;;;;;;;;;;;;;;2207010;59;1622;-71
2022/05/02 16:29:15;;;;;;;;;;;;;;;;;;2210106;59;1123;-71
2022/05/02 16:31:51;;;;;;;;;;;;;;;;;;2206349;59;2038;-71
2022/05/02 16:34:24;;;;;;;;;;;;;;;;;;2210084;59;1667;-72
2022/05/02 16:36:59;;;;;;;;;;;;;;;;;;2208813;59;1797;-71
2022/05/02 16:39:32;;;;;;;;;;;;;;;;;;2209060;59;2054;-71
2022/05/02 16:42:06;;;;;;;;;;;;;;;;;;2208809;59;1933;-71
2022/05/02 16:44:39;;;;;;;;;;;;;;;;;;2209722;59;2159;-71
2022/05/02 16:47:15;;;;;;;;;;;;;;;;;;2209577;59;1264;-71
2022/05/02 16:49:49;;;;;;;;;;;;;;;;;;2210023;59;1156;-71
2022/05/02 16:52:22;;;;;;;;;;;;;;;;;;2211068;67;1297;-71
2022/05/02 16:54:55;;;;;;;;;;;;;;;;;;2208715;59;1586;-71
2022/05/02 16:57:34;;;;;;;;;;;;;;;;;;2210290;59;1943;-71
2022/05/02 17:00:23;;;;;;;;;;;;;;;;;;2209165;59;1648;-71
2022/05/02 17:03:00;;;;;;;;;;;;;;;;;;2208115;59;2020;-71
2022/05/02 17:05:39;;;;;;;;;;;;;;;;;;2205450;59;2908;-71
2022/05/02 17:08:16;;;;;;;;;;;;;;;;;;2208888;67;1219;-71
2022/05/02 17:10:50;;;;;;;;;;;;;;;;;;2207868;59;1544;-71
2022/05/02 17:13:24;;;;;;;;;;;;;;;;;;2205872;67;1182;-71
2022/05/02 17:16:08;;;;;;;;;;;;;;;;;;2203610;59;1665;-70
2022/05/02 17:18:46;;;;;;;;;;;;;;;;;;2204518;59;1700;-70
2022/05/02 17:21:19;;;;;;;;;;;;;;;;;;2205813;59;1941;-71
2022/05/02 17:23:56;;;;;;;;;;;;;;;;;;2205024;59;1571;-71
2022/05/02 17:26:33;;;;;;;;;;;;;;;;;;2205248;59;1105;-71
2022/05/02 17:29:07;;;;;;;;;;;;;;;;;;2205453;67;1096;-71
2022/05/02 17:31:48;;;;;;;;;;;;;;;;;;2205818;59;1291;-70
2022/05/02 17:34:24;;;;;;;;;;;;;;;;;;2206507;59;2185;-71
2022/05/02 17:36:58;;;;;;;;;;;;;;;;;;2206131;59;1203;-71
2022/05/02 17:39:32;;;;;;;;;;;;;;;;;;2205011;59;1207;-71
2022/05/02 17:42:07;;;;;;;;;;;;;;;;;;2204960;59;1983;-71
2022/05/02 17:44:41;;;;;;;;;;;;;;;;;;2204695;59;1198;-71
2022/05/02 17:47:14;;;;;;;;;;;;;;;;;;2206281;59;1261;-71
2022/05/02 17:49:58;;;;;;;;;;;;;;;;;;2204479;59;1207;-71
2022/05/02 17:52:31;;;;;;;;;;;;;;;;;;2205336;59;1778;-71
2022/05/02 17:55:07;;;;;;;;;;;;;;;;;;2204957;67;1675;-71
2022/05/02 17:57:49;;;;;;;;;;;;;;;;;;2206427;59;1973;-71
2022/05/02 18:00:24;;;;;;;;;;;;;;;;;;2205439;59;1593;-71
2022/05/02 18:02:58;;;;;;;;;;;;;;;;;;2205942;59;1924;-71
2022/05/02 18:05:34;;;;;;;;;;;;;;;;;;2205745;59;2614;-71
2022/05/02 18:08:08;;;;;;;;;;;;;;;;;;2204704;59;2470;-71
2022/05/02 18:10:41;;;;;;;;;;;;;;;;;;2206164;59;1678;-71
2022/05/02 18:13:17;;;;;;;;;;;;;;;;;;2206137;59;1636;-71
2022/05/02 18:15:53;;;;;;;;;;;;;;;;;;2203902;59;1881;-71
2022/05/02 18:18:33;;;;;;;;;;;;;;;;;;2206157;59;1814;-71
2022/05/02 18:21:10;;;;;;;;;;;;;;;;;;2204423;59;1675;-70
2022/05/02 18:23:49;;;;;;;;;;;;;;;;;;2205079;59;1945;-71
2022/05/02 18:26:23;;;;;;;;;;;;;;;;;;2204529;59;1300;-71
2022/05/02 18:28:57;;;;;;;;;;;;;;;;;;2204596;67;1199;-71
2022/05/02 18:31:36;;;;;;;;;;;;;;;;;;2205076;59;1683;-70
2022/05/02 18:34:11;;;;;;;;;;;;;;;;;;2205305;67;1117;-70
2022/05/02 18:36:51;;;;;;;;;;;;;;;;;;2204943;67;1097;-70
2022/05/02 18:39:29;;;;;;;;;;;;;;;;;;2205249;59;1366;-71
2022/05/02 18:42:10;;;;;;;;;;;;;;;;;;2203358;59;1932;-71
2022/05/02 18:52:57;;;;;;;;;;;;;;;;;;2201099;67;1383;-70
2022/05/02 18:53:26;;;;;;;;;;;;;;;;;;2205131;67;1053;-70
2022/05/02 18:56:02;;;;;;;;;;;;;;;;;;2204212;59;2237;-71
2022/05/02 18:58:39;;;;;;;;;;;;;;;;;;2205597;59;1957;-71
2022/05/02 19:01:12;;;;;;;;;;;;;;;;;;2204556;59;1735;-71
2022/05/02 19:03:48;;;;;;;;;;;;;;;;;;2205599;67;1920;-70
2022/05/02 19:06:23;;;;;;;;;;;;;;;;;;2203398;59;2564;-70
2022/05/02 19:08:59;;;;;;;;;;;;;;;;;;2205252;59;2237;-70
2022/05/02 19:11:34;;;;;;;;;;;;;;;;;;2205447;59;1329;-70
2022/05/02 19:14:09;;;;;;;;;;;;;;;;;;2205829;67;1110;-71
2022/05/02 19:16:44;;;;;;;;;;;;;;;;;;2205307;59;1102;-70
2022/05/02 19:19:18;;;;;;;;;;;;;;;;;;2205269;67;1088;-70
2022/05/02 19:22:06;;;;;;;;;;;;;;;;;;2201242;59;1975;-70
2022/05/02 19:24:58;;;;;;;;;;;;;;;;;;2202323;59;1096;-70
2022/05/02 19:27:31;;;;;;;;;;;;;;;;;;2204829;67;1038;-70